Time;durP1;ratioP1;P1;durP2;ratioP2;P2;SDS_P1;SDS_P2;PMS_P1;PMS_P2;Temp;Humidity;BMP_temperature;BMP_pressure;BME280_temperature;BME280_humidity;BME280_pressure;Samples;Min_cycle;Max_cycle;Signal;HPM_P1;HPM_P2
2022/06/28 05:02:50;;;;;;;;;;;13.80;77.00;;;;;;4028448;26;19922;-68
2022/06/28 05:05:16;;;;;;;;;;;13.80;76.40;;;;;;5013987;28;19956;-68
2022/06/28 05:07:43;;;;;;;;;;;13.80;76.30;;;;;;5009659;28;20410;-68
2022/06/28 05:10:10;;;;;;;;;;;13.70;76.50;;;;;;5000909;28;19905;-68
2022/06/28 05:12:36;;;;;;;;;;;13.70;75.80;;;;;;5003367;28;19906;-68
2022/06/28 05:15:03;;;;;;;;;;;13.70;76.50;;;;;;4992271;28;19906;-68
2022/06/28 05:17:29;;;;;;;;;;;13.80;76.00;;;;;;5001413;28;19913;-68
2022/06/28 05:19:56;;;;;;;;;;;13.70;76.00;;;;;;4976311;28;19953;-68
2022/06/28 05:22:22;;;;;;;;;;;13.90;75.00;;;;;;4995869;28;19924;-68
2022/06/28 05:24:49;;;;;;;;;;;13.80;75.30;;;;;;5010986;28;20325;-69
2022/06/28 05:27:16;;;;;;;;;;;13.90;75.30;;;;;;4971770;28;19909;-69
2022/06/28 05:29:42;;;;;;;;;;;13.90;76.00;;;;;;5007254;28;20333;-69
2022/06/28 05:32:09;;;;;;;;;;;13.90;76.00;;;;;;4988724;28;20379;-68
2022/06/28 05:34:36;;;;;;;307.00;68.53;;;13.80;75.90;;;;;;4990716;28;20787;-67
2022/06/28 05:37:03;;;;;;;;;;;13.80;76.00;;;;;;4997099;28;20381;-68
2022/06/28 05:39:29;;;;;;;;;;;13.80;76.00;;;;;;4995684;28;19910;-68
2022/06/28 05:41:56;;;;;;;;;;;13.90;74.80;;;;;;4995651;28;19929;-68
2022/06/28 05:44:22;;;;;;;;;;;13.90;75.50;;;;;;4995564;28;19957;-69
2022/06/28 05:46:50;;;;;;;;;;;13.80;75.90;;;;;;4989980;28;19916;-71
2022/06/28 05:49:17;;;;;;;;;;;13.80;76.10;;;;;;5006415;28;19960;-70
2022/06/28 05:51:43;;;;;;;;;;;13.80;76.00;;;;;;5002948;28;19909;-70
2022/06/28 05:54:10;;;;;;;;;;;13.80;76.70;;;;;;4995289;28;19910;-70
2022/06/28 05:56:37;;;;;;;;;;;13.80;77.10;;;;;;5002550;28;19968;-71
2022/06/28 05:59:06;;;;;;;;;;;13.80;76.80;;;;;;4994867;28;19918;-71
2022/06/28 06:01:33;;;;;;;;;;;13.80;76.70;;;;;;5000435;28;20389;-70
2022/06/28 06:03:59;;;;;;;;;;;13.80;76.90;;;;;;5005098;28;20268;-70
2022/06/28 06:06:26;;;;;;;;;;;13.80;77.20;;;;;;4977682;28;19906;-69
2022/06/28 06:08:53;;;;;;;;;;;13.90;77.40;;;;;;4977427;28;20332;-69
2022/06/28 06:11:19;;;;;;;;;;;13.90;77.70;;;;;;4997658;28;19906;-69
2022/06/28 06:13:46;;;;;;;;;;;13.80;78.00;;;;;;4991147;28;19909;-68
2022/06/28 06:16:13;;;;;;;;;;;13.80;78.20;;;;;;5000068;28;19914;-69
2022/06/28 06:18:39;;;;;;;;;;;13.80;77.90;;;;;;4998905;28;19956;-69
2022/06/28 06:21:06;;;;;;;;;;;13.80;77.80;;;;;;4994165;28;19918;-71
2022/06/28 06:23:34;;;;;;;;;;;13.70;78.30;;;;;;4994580;28;19909;-71
2022/06/28 06:26:03;;;;;;;;;;;13.70;78.50;;;;;;4996020;28;20509;-71
2022/06/28 06:28:30;;;;;;;;;;;13.70;78.50;;;;;;4994607;28;19988;-71
2022/06/28 06:30:57;;;;;;;;;;;13.70;78.30;;;;;;5008946;28;19909;-71
2022/06/28 06:33:23;;;;;;;;;;;13.70;78.50;;;;;;4994915;28;19905;-71
2022/06/28 06:35:50;;;;;;;;;;;13.70;78.20;;;;;;5002792;28;20386;-71
2022/06/28 06:38:16;;;;;;;;;;;13.70;78.50;;;;;;4977199;28;21627;-70
2022/06/28 06:40:43;;;;;;;;;;;13.70;78.60;;;;;;4993107;28;19914;-71
2022/06/28 06:43:09;;;;;;;;;;;13.70;78.30;;;;;;4993573;28;19932;-71
2022/06/28 06:45:36;;;;;;;;;;;13.70;78.40;;;;;;4999518;28;19940;-70
2022/06/28 06:48:02;;;;;;;;;;;13.70;80.00;;;;;;4993728;28;20012;-71
2022/06/28 06:50:29;;;;;;;;;;;13.60;82.20;;;;;;4993910;28;19906;-71
2022/06/28 06:52:56;;;;;;;;;;;13.50;83.70;;;;;;4993869;28;19963;-71
2022/06/28 06:55:22;;;;;;;;;;;13.40;85.20;;;;;;4994464;28;19905;-71
2022/06/28 06:57:49;;;;;;;;;;;13.20;86.80;;;;;;4996822;28;19909;-71
2022/06/28 07:00:15;;;;;;;;;;;13.10;87.60;;;;;;4971709;28;19906;-71
2022/06/28 07:02:43;;;;;;;;;;;13.10;88.40;;;;;;4993557;28;19964;-69
2022/06/28 07:05:10;;;;;;;;;;;12.90;89.00;;;;;;4993763;28;19916;-67
2022/06/28 07:07:36;;;;;;;;;;;12.70;89.70;;;;;;4997915;28;19965;-66
2022/06/28 07:10:03;;;;;;;;;;;12.70;90.00;;;;;;4994546;28;19910;-66
2022/06/28 07:12:30;;;;;;;;;;;12.70;90.70;;;;;;4993461;28;19916;-66
2022/06/28 07:15:00;;;;;;;;;;;12.70;90.80;;;;;;4982507;28;20417;-68
2022/06/28 07:17:26;;;;;;;;;;;12.60;91.20;;;;;;5010134;28;19909;-69
2022/06/28 07:19:53;;;;;;;;;;;12.50;91.10;;;;;;4978268;28;19917;-68
2022/06/28 07:22:19;;;;;;;;;;;12.50;91.20;;;;;;4984666;28;19924;-69
2022/06/28 07:24:46;;;;;;;;;;;12.40;91.60;;;;;;5005431;28;20051;-69
2022/06/28 08:47:09;;;;;;;7.32;2.33;;;12.30;93.40;;;;;;4975262;28;20126;-70
2022/06/28 08:49:40;;;;;;;7.65;2.00;;;12.30;93.20;;;;;;4965513;28;20058;-69
2022/06/28 08:52:08;;;;;;;7.00;2.00;;;12.30;93.00;;;;;;4980750;28;20042;-69
2022/06/28 08:54:35;;;;;;;8.10;3.30;;;12.30;92.90;;;;;;4979620;28;20488;-68
2022/06/28 08:57:05;;;;;;;39.53;21.45;;;12.30;92.80;;;;;;4943616;28;20042;-69
2022/06/28 08:59:32;;;;;;;16.58;6.70;;;12.30;92.70;;;;;;4963045;28;20524;-68
2022/06/28 09:02:00;;;;;;;79.07;40.88;;;12.20;91.90;;;;;;4960188;28;20553;-68
2022/06/28 09:04:28;;;;;;;7.47;2.30;;;12.20;91.60;;;;;;4963956;28;20385;-69
2022/06/28 09:06:55;;;;;;;5.60;1.80;;;12.20;91.10;;;;;;4954559;28;20378;-69
2022/06/28 09:09:22;;;;;;;8.93;1.98;;;12.30;91.30;;;;;;4983217;28;20049;-69
2022/06/28 09:11:49;;;;;;;5.82;2.20;;;12.20;91.40;;;;;;4982326;28;20082;-69
2022/06/28 09:14:35;;;;;;;10.75;1.70;;;12.30;91.60;;;;;;4974078;28;20206;-69
2022/06/28 09:17:24;;;;;;;12.98;1.98;;;12.20;91.40;;;;;;4989308;28;20062;-69
2022/06/28 09:19:56;;;;;;;5.40;1.80;;;12.20;91.30;;;;;;4984706;28;20531;-70
2022/06/28 09:22:35;;;;;;;7.05;1.88;;;12.20;91.50;;;;;;4991338;28;20054;-71
2022/06/28 09:25:08;;;;;;;2.95;1.63;;;12.20;91.10;;;;;;4987621;28;20048;-70
2022/06/28 09:27:39;;;;;;;4.13;1.80;;;12.20;91.10;;;;;;4970831;28;20667;-70
2022/06/28 09:30:11;;;;;;;4.32;1.85;;;12.20;91.00;;;;;;4972132;28;20042;-70
2022/06/28 09:32:38;;;;;;;6.40;1.90;;;12.20;91.10;;;;;;4989838;28;20043;-70
2022/06/28 09:35:07;;;;;;;7.65;2.00;;;12.20;91.10;;;;;;4988765;28;20429;-70
2022/06/28 09:37:53;;;;;;;5.18;1.73;;;12.20;91.00;;;;;;4989884;28;20462;-71
2022/06/28 09:40:31;;;;;;;10.55;2.10;;;12.20;91.00;;;;;;4971820;28;20038;-71
2022/06/28 09:43:09;;;;;;;6.75;2.05;;;12.10;90.90;;;;;;4968854;28;20335;-71
2022/06/28 09:45:37;;;;;;;3.90;1.80;;;12.10;90.80;;;;;;4987136;28;20038;-70
2022/06/28 09:50:56;;;;;;;3.65;1.90;;;12.00;90.90;;;;;;4978830;28;20061;-70
2022/06/28 09:53:24;;;;;;;9.27;2.33;;;12.00;91.00;;;;;;4981984;28;20617;-71
2022/06/28 09:55:51;;;;;;;4.72;2.08;;;12.00;90.90;;;;;;4972888;28;20246;-71
2022/06/28 09:58:18;;;;;;;9.30;2.83;;;12.00;91.10;;;;;;4970016;28;20045;-70
2022/06/28 10:00:45;;;;;;;5.40;2.33;;;12.00;90.90;;;;;;4956164;28;20061;-68
2022/06/28 10:03:12;;;;;;;6.80;2.60;;;12.00;90.80;;;;;;4950680;28;20073;-67
2022/06/28 10:05:40;;;;;;;8.60;2.58;;;12.00;91.00;;;;;;4965200;28;20477;-69
2022/06/28 10:08:07;;;;;;;8.82;2.28;;;12.00;90.80;;;;;;4967187;28;20038;-69
2022/06/28 10:10:37;;;;;;;11.88;2.78;;;12.00;91.00;;;;;;4972700;28;20118;-68
2022/06/28 10:16:11;;;;;;;17.42;4.43;;;12.00;91.10;;;;;;4991634;28;20065;-68
2022/06/28 10:18:39;;;;;;;11.38;3.03;;;12.10;91.40;;;;;;4968285;28;20039;-73
2022/06/28 10:21:06;;;;;;;8.25;3.03;;;12.10;91.30;;;;;;4951426;28;20038;-67
2022/06/28 10:23:43;;;;;;;6.13;2.53;;;12.10;91.30;;;;;;4986664;28;20160;-68
2022/06/28 10:26:20;;;;;;;6.63;2.05;;;12.10;91.30;;;;;;4967805;28;20052;-68
2022/06/28 10:29:03;;;;;;;8.48;2.80;;;12.10;91.20;;;;;;4972600;28;20066;-69
2022/06/28 10:31:30;;;;;;;8.95;2.95;;;12.10;91.20;;;;;;4969790;28;20106;-70
2022/06/28 10:34:02;;;;;;;8.57;2.38;;;12.10;91.20;;;;;;4971455;28;20497;-68
2022/06/28 10:36:50;;;;;;;5.68;2.50;;;12.10;91.30;;;;;;4970548;28;20074;-69
2022/06/28 10:39:26;;;;;;;7.50;2.67;;;12.10;91.20;;;;;;4976758;28;20037;-69
2022/06/28 10:41:59;;;;;;;6.30;2.30;;;12.10;91.00;;;;;;4988632;28;20101;-68
2022/06/28 10:44:31;;;;;;;8.25;2.00;;;12.10;90.90;;;;;;4989411;28;20069;-68
2022/06/28 10:47:07;;;;;;;5.30;2.20;;;12.20;91.00;;;;;;4989989;28;20515;-68
2022/06/28 12:38:11;;;;;;;7.30;2.42;;;12.00;90.80;;;;;;4973225;28;20053;-68
2022/06/28 12:40:38;;;;;;;7.15;2.65;;;12.00;90.80;;;;;;4981901;28;20037;-69
2022/06/28 12:43:05;;;;;;;10.10;3.00;;;12.00;90.90;;;;;;4986054;28;20426;-70
2022/06/28 12:45:33;;;;;;;8.45;2.70;;;12.00;91.20;;;;;;4989569;28;20034;-69
2022/06/28 12:48:00;;;;;;;4.47;2.30;;;12.00;91.20;;;;;;4983949;28;20133;-69
2022/06/28 12:50:27;;;;;;;5.53;2.28;;;12.00;91.40;;;;;;4981006;28;20057;-72
2022/06/28 12:52:54;;;;;;;6.38;2.15;;;12.00;91.60;;;;;;4949328;28;20097;-72
2022/06/28 12:55:21;;;;;;;4.47;1.80;;;12.00;91.70;;;;;;4980720;28;20035;-71
2022/06/28 12:57:49;;;;;;;7.43;2.00;;;12.00;91.90;;;;;;4984346;28;20125;-70
2022/06/28 13:00:16;;;;;;;4.25;1.83;;;12.00;91.90;;;;;;4986214;28;20035;-70
2022/06/28 13:02:43;;;;;;;4.70;1.95;;;12.00;91.90;;;;;;4984176;28;20125;-70
2022/06/28 13:05:11;;;;;;;7.15;1.90;;;12.00;91.90;;;;;;4973201;28;20404;-68
2022/06/28 13:07:41;;;;;;;7.72;1.92;;;12.00;91.90;;;;;;4976381;28;20077;-68
2022/06/28 13:10:11;;;;;;;;;;;12.00;91.90;;;;;;4971792;28;20038;-68
2022/06/28 13:12:38;;;;;;;10.23;1.60;;;12.00;92.00;;;;;;4995416;28;20353;-71
2022/06/28 13:15:06;;;;;;;5.20;2.00;;;12.00;91.90;;;;;;4965309;28;20061;-72
2022/06/28 13:17:33;;;;;;;3.45;2.00;;;12.00;92.00;;;;;;4970781;28;20371;-71
2022/06/28 13:20:02;;;;;;;3.90;1.70;;;12.10;91.90;;;;;;4991103;28;20038;-70
2022/06/28 13:22:29;;;;;;;5.18;1.80;;;12.00;91.80;;;;;;4985658;28;20133;-74
2022/06/28 13:24:57;;;;;;;7.07;2.10;;;12.00;92.00;;;;;;4988306;28;20103;-73
2022/06/28 13:27:24;;;;;;;5.70;2.10;;;12.00;92.00;;;;;;4979784;28;20033;-74
2022/06/28 13:29:51;;;;;;;4.00;2.28;;;12.00;92.10;;;;;;4987163;28;20109;-73
2022/06/28 13:32:18;;;;;;;5.45;2.10;;;12.00;92.10;;;;;;4981781;28;20042;-72
2022/06/28 13:34:48;;;;;;;5.10;1.98;;;12.00;92.00;;;;;;4991085;28;20040;-71
2022/06/28 15:04:05;;;;;;;6.60;2.45;;;11.90;90.80;;;;;;4985038;28;20092;-73
2022/06/28 15:06:32;;;;;;;8.13;2.08;;;11.90;91.00;;;;;;4993323;28;20078;-73
2022/06/28 15:08:59;;;;;;;6.38;2.08;;;11.90;91.00;;;;;;4993568;28;20027;-73
2022/06/28 15:11:27;;;;;;;7.57;2.30;;;11.90;90.90;;;;;;4993274;28;20034;-74
2022/06/28 15:13:54;;;;;;;5.90;2.13;;;11.90;90.90;;;;;;4993620;28;20026;-74
2022/06/28 15:16:21;;;;;;;8.35;1.92;;;11.90;90.80;;;;;;4976348;28;20181;-74
2022/06/28 15:18:49;;;;;;;5.45;2.15;;;11.90;90.70;;;;;;4992952;28;20026;-74
2022/06/28 15:32:20;;;;;;;10.55;2.85;;;11.90;90.50;;;;;;5002151;28;20126;-74
2022/06/28 15:34:47;;;;;;;7.68;2.50;;;11.80;90.40;;;;;;4979582;28;20030;-75
2022/06/28 15:37:14;;;;;;;8.13;2.25;;;11.80;90.40;;;;;;4975217;28;20030;-76
2022/06/28 15:39:43;;;;;;;7.57;2.15;;;11.70;90.40;;;;;;4992574;28;20031;-75
2022/06/28 15:42:10;;;;;;;7.00;2.53;;;11.70;90.20;;;;;;4992330;28;20100;-76
2022/06/28 15:44:37;;;;;;;6.43;2.78;;;11.70;90.10;;;;;;4993333;28;20031;-74
2022/06/28 15:47:05;;;;;;;5.30;2.30;;;11.70;90.00;;;;;;4993037;28;20026;-74
2022/06/28 15:49:32;;;;;;;6.95;2.50;;;11.70;90.00;;;;;;4975529;28;20150;-74
2022/06/28 15:51:59;;;;;;;9.63;2.25;;;11.70;89.80;;;;;;4990336;28;20224;-74
2022/06/28 15:54:27;;;;;;;4.97;2.20;;;11.60;90.00;;;;;;4992920;28;20030;-74
2022/06/28 15:56:54;;;;;;;3.97;2.15;;;11.60;90.00;;;;;;4975822;28;20041;-74
2022/06/28 15:59:21;;;;;;;5.88;2.35;;;11.50;89.80;;;;;;4992855;28;20034;-74
2022/06/28 16:01:48;;;;;;;4.47;2.30;;;11.60;89.80;;;;;;4992783;28;20386;-74
2022/06/28 16:04:15;;;;;;;4.80;2.25;;;11.50;89.80;;;;;;4974277;28;20030;-74
2022/06/28 16:06:43;;;;;;;4.97;2.72;;;11.50;89.90;;;;;;4975805;28;20121;-74
2022/06/28 16:09:10;;;;;;;11.27;2.58;;;11.40;89.90;;;;;;4992485;28;20022;-74
2022/06/28 16:11:37;;;;;;;8.52;2.75;;;11.40;90.10;;;;;;4993306;28;20030;-73
2022/06/28 16:14:04;;;;;;;6.05;2.33;;;11.40;89.90;;;;;;4973835;28;20058;-73
2022/06/28 16:16:32;;;;;;;7.20;2.45;;;11.30;90.00;;;;;;4992334;28;20109;-73
2022/06/28 16:18:59;;;;;;;6.38;2.58;;;11.30;90.00;;;;;;5002305;28;20366;-73
2022/06/28 16:21:26;;;;;;;4.82;2.40;;;11.30;90.10;;;;;;4991427;28;20093;-73
2022/06/28 16:23:53;;;;;;;6.00;2.40;;;11.30;90.10;;;;;;4981885;28;20113;-73
2022/06/28 16:26:20;;;;;;;7.70;2.63;;;11.30;90.10;;;;;;4992099;28;20034;-73
2022/06/28 16:28:47;;;;;;;6.55;2.63;;;11.30;90.10;;;;;;4992907;28;20020;-73
2022/06/28 16:31:15;;;;;;;6.32;2.53;;;11.30;90.20;;;;;;4992644;28;20042;-73
2022/06/28 16:33:42;;;;;;;4.57;2.53;;;11.30;90.00;;;;;;4988561;28;20050;-74
2022/06/28 16:36:09;;;;;;;5.07;2.50;;;11.20;90.00;;;;;;4989718;28;20113;-73
2022/06/28 16:38:37;;;;;;;4.70;2.40;;;11.20;90.00;;;;;;4974790;28;20041;-74
2022/06/28 16:41:04;;;;;;;5.75;2.80;;;11.20;90.10;;;;;;5004185;28;20045;-73
2022/06/28 16:43:31;;;;;;;5.32;3.00;;;11.20;89.90;;;;;;4992418;28;20053;-73
2022/06/28 16:45:59;;;;;;;7.78;2.60;;;11.10;90.20;;;;;;4975846;28;20030;-73
2022/06/28 16:48:26;;;;;;;7.38;2.78;;;11.10;90.10;;;;;;4992363;28;20043;-73
2022/06/28 16:50:53;;;;;;;10.52;2.63;;;11.10;90.30;;;;;;4992232;28;20045;-73
2022/06/28 16:53:20;;;;;;;4.35;2.40;;;11.00;90.30;;;;;;4990157;28;20025;-73
2022/06/28 16:55:47;;;;;;;4.88;2.42;;;11.00;90.30;;;;;;4991106;28;20046;-74
2022/06/28 16:58:14;;;;;;;7.25;2.63;;;11.00;90.30;;;;;;4991017;28;20177;-73
2022/06/28 17:00:42;;;;;;;3.50;2.20;;;11.00;90.30;;;;;;4989504;28;20027;-74
2022/06/28 21:16:10;;;;;;;9.02;3.85;;;9.70;90.10;;;;;;4986063;28;20153;-72
2022/06/28 21:18:37;;;;;;;5.35;3.25;;;9.70;90.00;;;;;;4993981;28;20069;-72
2022/06/28 21:21:05;;;;;;;7.07;3.80;;;9.80;90.10;;;;;;4961995;28;20069;-72
2022/06/28 21:23:32;;;;;;;10.25;3.70;;;9.80;90.10;;;;;;4977969;28;20492;-72
2022/06/28 21:25:59;;;;;;;6.22;3.38;;;9.80;90.20;;;;;;4977738;28;20114;-72
2022/06/28 21:28:26;;;;;;;8.02;3.75;;;9.80;90.30;;;;;;4958558;28;20035;-73
2022/06/28 21:30:53;;;;;;;9.05;3.88;;;9.90;90.00;;;;;;4989489;28;20027;-72
2022/06/28 21:33:21;;;;;;;8.27;3.75;;;9.90;90.00;;;;;;5004600;28;20042;-72
2022/06/28 21:35:48;;;;;;;5.93;3.40;;;10.00;90.00;;;;;;4978379;28;20122;-72
2022/06/28 21:38:15;;;;;;;11.00;3.88;;;10.00;89.80;;;;;;4977703;28;20034;-72
2022/06/28 21:40:42;;;;;;;8.45;3.20;;;10.10;89.80;;;;;;4962463;28;20030;-72
2022/06/28 21:43:10;;;;;;;6.57;3.30;;;10.10;89.60;;;;;;4978190;28;20050;-72
2022/06/28 21:45:37;;;;;;;10.77;3.47;;;10.10;89.70;;;;;;4995117;28;20500;-71
2022/06/28 21:48:04;;;;;;;7.20;3.55;;;10.20;89.60;;;;;;4961077;28;20045;-72
2022/06/28 21:50:32;;;;;;;5.72;2.67;;;10.20;89.60;;;;;;4995265;28;20050;-72
2022/06/28 21:52:59;;;;;;;5.57;3.00;;;10.20;89.60;;;;;;4993775;28;20033;-72
2022/06/28 21:55:27;;;;;;;6.75;2.78;;;10.20;89.30;;;;;;4995237;28;20035;-72
2022/06/28 21:57:55;;;;;;;7.28;3.33;;;10.30;89.00;;;;;;4978140;28;20023;-72
2022/06/28 22:00:34;;;;;;;8.18;3.10;;;10.30;89.00;;;;;;4977936;28;20033;-71
2022/06/28 22:03:05;;;;;;;7.50;3.70;;;10.30;89.00;;;;;;5000174;28;20046;-70
2022/06/28 22:05:32;;;;;;;8.70;3.58;;;10.40;89.10;;;;;;4976084;28;20053;-70
2022/06/28 22:07:59;;;;;;;5.78;3.40;;;10.40;89.10;;;;;;4977194;28;20041;-70
2022/06/28 22:10:27;;;;;;;6.38;3.40;;;10.40;88.90;;;;;;4994983;28;20068;-70
2022/06/28 22:12:54;;;;;;;5.35;3.10;;;10.50;89.00;;;;;;4972860;28;20038;-71
2022/06/28 22:15:21;;;;;;;8.07;2.58;;;10.50;88.80;;;;;;4992960;28;20034;-71
